createdAt,value
2022-12-22T00:01:17.355Z,21.40
2022-12-22T00:06:40.181Z,21.40
2022-12-22T00:12:02.895Z,21.40
2022-12-22T00:17:43.642Z,21.40
2022-12-22T00:23:06.161Z,21.30
2022-12-22T00:28:33.851Z,21.30
2022-12-22T00:33:54.810Z,21.30
2022-12-22T00:39:17.348Z,21.30
2022-12-22T00:44:38.283Z,21.30
2022-12-22T00:50:05.393Z,21.20
2022-12-22T00:55:37.637Z,21.20
2022-12-22T01:00:58.839Z,21.20
2022-12-22T01:06:22.108Z,21.20
2022-12-22T01:11:46.242Z,21.20
2022-12-22T01:17:07.500Z,21.20
2022-12-22T01:22:31.060Z,21.10
2022-12-22T01:27:53.538Z,21.10
2022-12-22T01:33:14.736Z,21.10
2022-12-22T01:38:36.262Z,21.10
2022-12-22T01:43:59.095Z,21.10
2022-12-22T01:49:20.155Z,21.10
2022-12-22T01:54:41.271Z,21.10
2022-12-22T02:00:04.379Z,21.10
2022-12-22T02:05:35.636Z,21.10
2022-12-22T02:11:21.467Z,21.10
2022-12-22T02:16:52.978Z,21.10
2022-12-22T02:22:28.715Z,21.20
2022-12-22T02:27:53.682Z,21.20
2022-12-22T02:33:14.709Z,21.20
2022-12-22T02:38:45.578Z,21.20
2022-12-22T02:44:34.975Z,21.10
2022-12-22T02:50:02.378Z,21.20
2022-12-22T02:55:25.605Z,21.10
2022-12-22T03:00:48.256Z,21.10
2022-12-22T03:06:09.334Z,21.10
2022-12-22T03:11:30.423Z,21.10
2022-12-22T03:16:53.167Z,21.10
2022-12-22T03:22:14.199Z,21.10
2022-12-22T03:27:17.812Z,21.10
2022-12-22T03:32:23.042Z,21.00
2022-12-22T03:37:26.769Z,21.00
2022-12-22T03:42:48.071Z,21.00
2022-12-22T03:47:53.013Z,21.00
2022-12-22T03:52:56.537Z,21.00
2022-12-22T03:58:00.114Z,21.00
2022-12-22T04:03:05.454Z,20.90
2022-12-22T04:08:09.158Z,21.00
2022-12-22T04:13:12.891Z,20.90
2022-12-22T04:18:17.908Z,20.90
2022-12-22T04:23:21.487Z,20.90
2022-12-22T04:28:25.146Z,20.90
2022-12-22T04:33:30.228Z,20.90
2022-12-22T04:38:33.954Z,20.90
2022-12-22T04:43:38.404Z,20.90
2022-12-22T04:48:43.795Z,20.90
2022-12-22T04:53:47.407Z,20.90
2022-12-22T04:58:51.102Z,20.90
2022-12-22T05:03:56.061Z,20.90
2022-12-22T05:08:59.724Z,20.90
2022-12-22T05:14:07.168Z,20.90
2022-12-22T05:19:12.348Z,21.00
2022-12-22T05:24:16.195Z,20.90
2022-12-22T05:29:19.960Z,20.90
2022-12-22T05:34:24.862Z,21.00
2022-12-22T05:39:28.484Z,21.00
2022-12-22T05:44:32.157Z,21.00
2022-12-22T05:49:37.208Z,20.90
2022-12-22T05:54:40.941Z,20.90
2022-12-22T05:59:45.763Z,20.90
2022-12-22T06:04:50.696Z,20.90
2022-12-22T06:09:55.092Z,20.90
2022-12-22T06:14:58.701Z,20.90
2022-12-22T06:20:03.740Z,20.90
2022-12-22T06:25:10.930Z,20.90
2022-12-22T06:30:19.326Z,20.90
2022-12-22T06:35:24.284Z,20.80
2022-12-22T06:40:27.863Z,20.90
2022-12-22T06:45:31.412Z,20.90
2022-12-22T06:50:37.046Z,20.90
2022-12-22T06:55:40.982Z,20.90
2022-12-22T07:00:48.562Z,20.90
2022-12-22T07:05:53.602Z,21.00
2022-12-22T07:11:00.180Z,21.00
2022-12-22T07:16:07.364Z,21.00
2022-12-22T07:21:15.237Z,21.10
2022-12-22T07:26:18.838Z,21.10
2022-12-22T07:31:22.484Z,21.10
2022-12-22T07:36:27.543Z,21.10
2022-12-22T07:41:47.863Z,21.10
2022-12-22T07:46:52.087Z,21.10
2022-12-22T07:51:58.647Z,21.10
2022-12-22T07:57:02.220Z,21.10
2022-12-22T08:02:05.916Z,21.10
2022-12-22T08:07:11.091Z,21.10
2022-12-22T08:12:14.879Z,21.00
2022-12-22T08:17:18.828Z,21.00
2022-12-22T08:22:25.038Z,21.10
2022-12-22T08:27:38.364Z,21.00
2022-12-22T08:32:43.473Z,21.10
2022-12-22T08:37:49.801Z,21.00
2022-12-22T08:42:59.312Z,21.00
2022-12-22T08:48:02.911Z,21.00
2022-12-22T08:53:29.757Z,21.00
2022-12-22T08:58:34.803Z,21.00
2022-12-22T09:03:38.582Z,21.00
2022-12-22T09:08:43.678Z,21.00
2022-12-22T09:13:47.250Z,21.00
2022-12-22T09:18:51.480Z,21.00
2022-12-22T09:23:58.356Z,21.00
2022-12-22T09:29:02.343Z,20.90
2022-12-22T09:34:06.008Z,20.70
2022-12-22T09:39:12.072Z,20.50
2022-12-22T09:44:25.774Z,20.50
2022-12-22T09:49:30.171Z,20.50
2022-12-22T09:54:35.263Z,20.40
2022-12-22T09:59:38.997Z,20.40
2022-12-22T10:05:16.423Z,20.30
2022-12-22T10:10:28.232Z,20.30
2022-12-22T10:15:38.969Z,20.20
2022-12-22T10:20:46.193Z,20.20
2022-12-22T10:26:29.553Z,20.10
2022-12-22T10:31:36.289Z,20.10
2022-12-22T10:36:41.277Z,20.10
2022-12-22T10:41:50.084Z,20.00
2022-12-22T10:46:56.656Z,20.00
2022-12-22T10:52:15.229Z,20.10
2022-12-22T10:57:31.821Z,20.20
2022-12-22T11:02:39.067Z,20.30
2022-12-22T11:07:47.021Z,20.40
2022-12-22T11:13:44.306Z,20.40
2022-12-22T11:19:09.422Z,20.40
2022-12-22T11:24:31.185Z,20.40
2022-12-22T11:30:08.404Z,21.20
2022-12-22T11:35:24.451Z,21.40
2022-12-22T11:40:40.161Z,21.10
2022-12-22T11:46:06.298Z,20.90
2022-12-22T11:51:27.345Z,20.90
2022-12-22T11:56:40.052Z,20.80
2022-12-22T12:02:17.758Z,20.80
2022-12-22T12:07:28.167Z,20.80
2022-12-22T12:12:48.406Z,20.80
2022-12-22T12:18:40.322Z,20.80
2022-12-22T12:24:34.933Z,20.70
2022-12-22T12:29:48.715Z,20.70
2022-12-22T12:35:15.022Z,20.60
2022-12-22T12:40:37.000Z,20.60
2022-12-22T12:45:43.887Z,20.60
2022-12-22T12:50:49.448Z,20.60
2022-12-22T12:56:07.516Z,20.50
2022-12-22T13:01:14.372Z,20.50
2022-12-22T13:06:54.411Z,20.60
2022-12-22T13:12:17.197Z,20.60
2022-12-22T13:17:42.769Z,20.50
2022-12-22T13:22:53.121Z,20.50
2022-12-22T13:27:59.071Z,20.50
2022-12-22T13:33:03.204Z,20.50
2022-12-22T13:38:13.217Z,20.50
2022-12-22T13:43:19.470Z,20.50
2022-12-22T13:48:31.147Z,20.50
2022-12-22T13:54:07.145Z,20.50
2022-12-22T13:59:06.687Z,20.40
2022-12-22T14:04:15.398Z,20.40
2022-12-22T14:09:23.745Z,20.40
2022-12-22T14:14:33.127Z,20.40
2022-12-22T14:19:38.852Z,20.40
2022-12-22T14:24:48.043Z,20.30
2022-12-22T14:29:52.944Z,20.30
2022-12-22T14:34:56.781Z,20.30
2022-12-22T14:40:01.932Z,20.30
2022-12-22T14:45:16.106Z,20.30
2022-12-22T14:50:22.319Z,20.30
2022-12-22T14:55:32.431Z,20.30
2022-12-22T15:00:39.339Z,20.30
2022-12-22T15:05:44.678Z,20.30
2022-12-22T15:10:49.841Z,20.20
2022-12-22T15:15:53.896Z,20.20
2022-12-22T15:20:58.959Z,20.20
2022-12-22T15:26:04.163Z,20.20
2022-12-22T15:31:16.366Z,20.20
2022-12-22T15:36:20.080Z,20.20
2022-12-22T15:41:25.207Z,20.20
2022-12-22T15:46:29.104Z,20.20
2022-12-22T15:51:33.633Z,20.20
2022-12-22T15:56:39.238Z,20.20
2022-12-22T16:01:43.172Z,20.20
2022-12-22T16:06:47.668Z,20.20
2022-12-22T16:11:52.823Z,20.30
2022-12-22T16:16:56.598Z,20.30
2022-12-22T16:22:00.390Z,20.30
2022-12-22T16:27:05.990Z,20.30
2022-12-22T16:32:19.319Z,20.30
2022-12-22T16:37:23.254Z,20.20
2022-12-22T16:47:53.753Z,20.10
2022-12-22T16:52:57.382Z,20.10
2022-12-22T16:58:12.780Z,20.10
2022-12-22T17:03:22.360Z,20.20
2022-12-22T17:08:31.345Z,20.20
2022-12-22T17:13:37.253Z,20.20
2022-12-22T17:18:41.003Z,20.20
2022-12-22T17:23:48.916Z,20.20
2022-12-22T17:28:53.994Z,20.20
2022-12-22T17:33:58.918Z,20.20
2022-12-22T17:39:03.833Z,20.20
2022-12-22T17:44:22.545Z,20.20
2022-12-22T17:49:26.390Z,20.20
2022-12-22T17:54:30.242Z,20.20
2022-12-22T17:59:35.388Z,20.20
2022-12-22T18:04:39.345Z,20.20
2022-12-22T18:09:44.185Z,20.20
2022-12-22T18:14:50.337Z,20.20
2022-12-22T18:19:54.737Z,20.50
2022-12-22T18:24:58.956Z,21.10
2022-12-22T18:30:18.605Z,21.60
2022-12-22T18:35:27.597Z,21.90
2022-12-22T18:40:35.100Z,22.00
2022-12-22T18:45:40.135Z,22.00
2022-12-22T18:50:44.426Z,22.00
2022-12-22T18:55:48.439Z,22.00
2022-12-22T19:00:55.504Z,21.90
2022-12-22T19:05:59.689Z,21.90
2022-12-22T19:11:08.366Z,21.80
2022-12-22T19:16:16.357Z,21.80
2022-12-22T19:21:21.037Z,21.80
2022-12-22T19:26:27.737Z,21.70
2022-12-22T19:31:35.448Z,21.70
2022-12-22T19:36:38.960Z,21.60
2022-12-22T19:41:47.205Z,21.60
2022-12-22T19:46:54.261Z,21.50
2022-12-22T19:51:58.664Z,21.50
2022-12-22T19:57:02.750Z,21.50
2022-12-22T20:02:27.258Z,21.50
2022-12-22T20:07:36.932Z,21.40
2022-12-22T20:12:45.333Z,21.40
2022-12-22T20:17:53.642Z,21.40
2022-12-22T20:23:03.587Z,21.30
2022-12-22T20:28:19.806Z,21.30
2022-12-22T20:33:28.324Z,21.30
2022-12-22T20:38:37.335Z,21.20
2022-12-22T20:43:41.939Z,21.20
2022-12-22T20:48:51.935Z,21.20
2022-12-22T20:53:57.251Z,21.10
2022-12-22T20:59:11.648Z,21.10
2022-12-22T21:04:18.528Z,21.10
2022-12-22T21:09:23.356Z,21.10
2022-12-22T21:14:27.002Z,21.00
2022-12-22T21:19:31.987Z,21.00
2022-12-22T21:24:35.647Z,21.00
2022-12-22T21:29:39.323Z,21.00
2022-12-22T21:34:44.635Z,20.90
2022-12-22T21:39:49.250Z,20.90
2022-12-22T21:44:52.876Z,20.90
2022-12-22T21:49:57.875Z,21.00
2022-12-22T21:55:01.583Z,21.20
2022-12-22T22:00:08.319Z,21.40
2022-12-22T22:05:26.334Z,21.50
2022-12-22T22:10:34.257Z,21.60
2022-12-22T22:15:39.081Z,21.60
2022-12-22T22:20:44.617Z,21.70
2022-12-22T22:25:48.280Z,21.70
2022-12-22T22:30:51.988Z,21.60
2022-12-22T22:36:00.739Z,21.60
2022-12-22T22:41:09.342Z,21.60
2022-12-22T22:46:12.955Z,21.50
2022-12-22T22:51:17.956Z,21.50
2022-12-22T22:56:21.639Z,21.50
2022-12-22T23:01:25.358Z,21.40
2022-12-22T23:06:30.417Z,21.40
2022-12-22T23:11:34.041Z,21.50
2022-12-22T23:16:38.995Z,21.40
2022-12-22T23:21:44.882Z,21.50
2022-12-22T23:26:49.585Z,21.50
2022-12-22T23:31:53.557Z,21.50
2022-12-22T23:36:58.825Z,21.60
2022-12-22T23:42:02.511Z,21.60
2022-12-22T23:47:07.071Z,21.60
2022-12-22T23:52:12.321Z,21.50
2022-12-22T23:57:16.029Z,21.50
